sensor_id;sensor_type;location;lat;lon;timestamp;pressure;altitude;pressure_sealevel;temperature;humidity
62789;BME280;66401;42.016;21.454;2023-02-14T00:01:34;99888.38;;;3.66;52.29
62789;BME280;66401;42.016;21.454;2023-02-14T00:04:00;99887.22;;;3.70;51.65
62789;BME280;66401;42.016;21.454;2023-02-14T00:06:26;99883.88;;;3.81;51.76
62789;BME280;66401;42.016;21.454;2023-02-14T00:08:52;99883.28;;;3.78;51.80
62789;BME280;66401;42.016;21.454;2023-02-14T00:11:20;99891.06;;;3.65;52.57
62789;BME280;66401;42.016;21.454;2023-02-14T00:13:46;99896.66;;;3.59;53.06
62789;BME280;66401;42.016;21.454;2023-02-14T00:16:31;99885.53;;;3.58;53.05
62789;BME280;66401;42.016;21.454;2023-02-14T00:18:57;99899.41;;;3.68;52.68
62789;BME280;66401;42.016;21.454;2023-02-14T00:21:30;99891.97;;;3.77;52.04
62789;BME280;66401;42.016;21.454;2023-02-14T00:23:55;99885.78;;;3.66;52.14
62789;BME280;66401;42.016;21.454;2023-02-14T00:26:21;99900.66;;;3.63;52.62
62789;BME280;66401;42.016;21.454;2023-02-14T00:28:46;99898.19;;;3.61;53.48
62789;BME280;66401;42.016;21.454;2023-02-14T00:31:12;99895.31;;;3.53;53.06
62789;BME280;66401;42.016;21.454;2023-02-14T00:33:37;99886.47;;;3.57;53.38
62789;BME280;66401;42.016;21.454;2023-02-14T00:36:04;99888.22;;;3.44;53.87
62789;BME280;66401;42.016;21.454;2023-02-14T00:38:31;99901.69;;;3.60;53.30
62789;BME280;66401;42.016;21.454;2023-02-14T00:40:57;99904.50;;;3.81;53.70
62789;BME280;66401;42.016;21.454;2023-02-14T00:43:22;99896.75;;;3.57;53.33
62789;BME280;66401;42.016;21.454;2023-02-14T00:45:48;99904.78;;;3.53;53.59
62789;BME280;66401;42.016;21.454;2023-02-14T00:48:13;99893.31;;;3.33;54.29
62789;BME280;66401;42.016;21.454;2023-02-14T00:50:39;99890.63;;;3.34;53.68
62789;BME280;66401;42.016;21.454;2023-02-14T00:53:04;99896.19;;;3.41;54.90
62789;BME280;66401;42.016;21.454;2023-02-14T00:55:30;99895.34;;;3.40;54.23
62789;BME280;66401;42.016;21.454;2023-02-14T00:57:55;99886.72;;;3.29;54.00
62789;BME280;66401;42.016;21.454;2023-02-14T01:00:21;99891.88;;;3.29;54.10
62789;BME280;66401;42.016;21.454;2023-02-14T01:02:46;99903.59;;;3.33;53.43
62789;BME280;66401;42.016;21.454;2023-02-14T01:05:12;99884.66;;;3.34;53.92
62789;BME280;66401;42.016;21.454;2023-02-14T01:07:37;99892.25;;;3.35;53.47
62789;BME280;66401;42.016;21.454;2023-02-14T01:10:03;99884.41;;;3.37;53.36
62789;BME280;66401;42.016;21.454;2023-02-14T01:12:29;99876.44;;;3.29;55.06
62789;BME280;66401;42.016;21.454;2023-02-14T01:14:54;99886.63;;;3.30;54.92
62789;BME280;66401;42.016;21.454;2023-02-14T01:17:20;99882.91;;;3.22;53.94
62789;BME280;66401;42.016;21.454;2023-02-14T01:19:45;99888.88;;;3.35;54.31
62789;BME280;66401;42.016;21.454;2023-02-14T01:22:11;99887.28;;;3.45;52.87
62789;BME280;66401;42.016;21.454;2023-02-14T01:24:36;99895.34;;;3.40;54.33
62789;BME280;66401;42.016;21.454;2023-02-14T01:27:02;99890.72;;;3.33;54.50
62789;BME280;66401;42.016;21.454;2023-02-14T01:29:27;99882.22;;;3.20;54.28
62789;BME280;66401;42.016;21.454;2023-02-14T01:31:53;99878.88;;;3.17;54.68
62789;BME280;66401;42.016;21.454;2023-02-14T01:34:18;99874.91;;;3.13;54.50
62789;BME280;66401;42.016;21.454;2023-02-14T01:36:44;99869.53;;;3.16;54.91
62789;BME280;66401;42.016;21.454;2023-02-14T01:39:12;99855.03;;;3.03;54.91
62789;BME280;66401;42.016;21.454;2023-02-14T01:41:39;99876.03;;;3.09;53.50
62789;BME280;66401;42.016;21.454;2023-02-14T01:46:59;99866.56;;;2.97;54.42
62789;BME280;66401;42.016;21.454;2023-02-14T01:49:48;99876.22;;;3.06;54.62
62789;BME280;66401;42.016;21.454;2023-02-14T01:52:39;99869.03;;;2.99;54.21
62789;BME280;66401;42.016;21.454;2023-02-14T01:55:09;99874.81;;;3.02;54.93
62789;BME280;66401;42.016;21.454;2023-02-14T01:57:46;99867.78;;;3.04;55.11
62789;BME280;66401;42.016;21.454;2023-02-14T02:00:13;99865.34;;;3.03;54.76
62789;BME280;66401;42.016;21.454;2023-02-14T02:02:58;99865.56;;;3.00;54.70
62789;BME280;66401;42.016;21.454;2023-02-14T02:05:25;99861.22;;;3.00;54.17
62789;BME280;66401;42.016;21.454;2023-02-14T02:07:54;99855.06;;;2.90;54.95
62789;BME280;66401;42.016;21.454;2023-02-14T02:10:21;99857.94;;;2.85;54.81
62789;BME280;66401;42.016;21.454;2023-02-14T02:12:50;99850.94;;;3.00;54.68
62789;BME280;66401;42.016;21.454;2023-02-14T02:15:17;99856.06;;;3.00;54.46
62789;BME280;66401;42.016;21.454;2023-02-14T02:48:05;99831.38;;;2.85;54.56
62789;BME280;66401;42.016;21.454;2023-02-14T02:50:46;99811.00;;;2.69;55.08
62789;BME280;66401;42.016;21.454;2023-02-14T02:56:04;99820.47;;;2.69;54.77
62789;BME280;66401;42.016;21.454;2023-02-14T03:04:39;99828.16;;;2.18;55.31
62789;BME280;66401;42.016;21.454;2023-02-14T03:07:39;99830.50;;;2.21;56.51
62789;BME280;66401;42.016;21.454;2023-02-14T03:10:12;99829.13;;;2.42;56.06
62789;BME280;66401;42.016;21.454;2023-02-14T03:12:48;99824.38;;;2.36;56.23
62789;BME280;66401;42.016;21.454;2023-02-14T03:21:30;99820.88;;;2.50;55.21
62789;BME280;66401;42.016;21.454;2023-02-14T03:24:18;99817.16;;;2.41;55.97
62789;BME280;66401;42.016;21.454;2023-02-14T03:26:49;99831.97;;;2.38;56.19
62789;BME280;66401;42.016;21.454;2023-02-14T03:34:51;99818.28;;;2.24;56.68
62789;BME280;66401;42.016;21.454;2023-02-14T03:37:35;99833.63;;;2.39;57.36
62789;BME280;66401;42.016;21.454;2023-02-14T03:40:36;99831.38;;;2.59;56.02
62789;BME280;66401;42.016;21.454;2023-02-14T03:43:13;99826.53;;;2.68;55.43
62789;BME280;66401;42.016;21.454;2023-02-14T03:45:46;99846.41;;;2.66;55.34
62789;BME280;66401;42.016;21.454;2023-02-14T03:48:18;99832.50;;;2.55;55.63
62789;BME280;66401;42.016;21.454;2023-02-14T03:50:47;99839.63;;;2.52;55.57
62789;BME280;66401;42.016;21.454;2023-02-14T03:53:18;99838.97;;;2.48;55.59
62789;BME280;66401;42.016;21.454;2023-02-14T03:55:53;99824.81;;;2.43;56.19
62789;BME280;66401;42.016;21.454;2023-02-14T03:58:23;99841.97;;;2.55;56.42
62789;BME280;66401;42.016;21.454;2023-02-14T04:00:56;99825.41;;;2.46;56.49
62789;BME280;66401;42.016;21.454;2023-02-14T04:03:24;99819.22;;;2.36;56.06
62789;BME280;66401;42.016;21.454;2023-02-14T04:05:51;99809.06;;;2.35;56.46
62789;BME280;66401;42.016;21.454;2023-02-14T04:08:23;99817.06;;;2.30;57.06
62789;BME280;66401;42.016;21.454;2023-02-14T04:10:50;99819.03;;;2.52;56.93
62789;BME280;66401;42.016;21.454;2023-02-14T04:13:16;99821.09;;;2.34;56.89
62789;BME280;66401;42.016;21.454;2023-02-14T04:15:41;99807.50;;;2.32;56.56
62789;BME280;66401;42.016;21.454;2023-02-14T04:18:07;99807.94;;;2.51;56.66
62789;BME280;66401;42.016;21.454;2023-02-14T04:20:52;99798.97;;;2.44;56.17
62789;BME280;66401;42.016;21.454;2023-02-14T04:23:17;99799.88;;;2.30;57.44
62789;BME280;66401;42.016;21.454;2023-02-14T04:25:43;99804.19;;;2.30;56.94
62789;BME280;66401;42.016;21.454;2023-02-14T04:28:10;99803.41;;;2.42;57.62
62789;BME280;66401;42.016;21.454;2023-02-14T04:30:35;99785.59;;;2.39;57.48
62789;BME280;66401;42.016;21.454;2023-02-14T04:33:02;99793.31;;;2.52;56.74
62789;BME280;66401;42.016;21.454;2023-02-14T04:35:28;99788.38;;;2.49;58.06
62789;BME280;66401;42.016;21.454;2023-02-14T04:37:54;99788.56;;;2.58;56.40
62789;BME280;66401;42.016;21.454;2023-02-14T04:40:19;99780.13;;;2.56;56.47
62789;BME280;66401;42.016;21.454;2023-02-14T04:42:45;99784.25;;;2.59;56.76
62789;BME280;66401;42.016;21.454;2023-02-14T04:45:10;99785.69;;;2.50;55.71
62789;BME280;66401;42.016;21.454;2023-02-14T04:47:36;99779.13;;;2.46;55.80
62789;BME280;66401;42.016;21.454;2023-02-14T04:50:02;99756.50;;;2.26;55.91
62789;BME280;66401;42.016;21.454;2023-02-14T04:52:27;99760.50;;;2.30;55.96
62789;BME280;66401;42.016;21.454;2023-02-14T04:54:53;99783.19;;;2.11;56.99
62789;BME280;66401;42.016;21.454;2023-02-14T04:57:18;99789.16;;;2.11;56.40
62789;BME280;66401;42.016;21.454;2023-02-14T04:59:44;99774.44;;;2.00;56.78
62789;BME280;66401;42.016;21.454;2023-02-14T05:02:09;99776.19;;;1.87;58.43
62789;BME280;66401;42.016;21.454;2023-02-14T05:04:35;99775.25;;;1.88;57.35
62789;BME280;66401;42.016;21.454;2023-02-14T05:07:00;99784.22;;;1.95;57.03
62789;BME280;66401;42.016;21.454;2023-02-14T05:09:26;99781.53;;;1.84;56.62
62789;BME280;66401;42.016;21.454;2023-02-14T05:11:52;99789.50;;;1.80;57.27
62789;BME280;66401;42.016;21.454;2023-02-14T05:14:17;99790.13;;;1.83;57.99
62789;BME280;66401;42.016;21.454;2023-02-14T05:16:43;99789.75;;;1.89;58.12
62789;BME280;66401;42.016;21.454;2023-02-14T05:19:08;99787.84;;;1.66;58.37
62789;BME280;66401;42.016;21.454;2023-02-14T05:21:34;99780.59;;;1.46;58.87
62789;BME280;66401;42.016;21.454;2023-02-14T05:23:59;99778.88;;;1.32;59.94
62789;BME280;66401;42.016;21.454;2023-02-14T05:26:25;99795.28;;;1.29;59.57
62789;BME280;66401;42.016;21.454;2023-02-14T05:28:51;99788.69;;;1.25;60.65
62789;BME280;66401;42.016;21.454;2023-02-14T05:31:17;99774.56;;;1.32;60.84
62789;BME280;66401;42.016;21.454;2023-02-14T05:33:42;99786.66;;;1.30;60.20
62789;BME280;66401;42.016;21.454;2023-02-14T05:36:09;99787.28;;;1.34;59.86
62789;BME280;66401;42.016;21.454;2023-02-14T05:38:34;99806.25;;;1.46;59.24
62789;BME280;66401;42.016;21.454;2023-02-14T05:41:00;99801.19;;;1.44;59.21
62789;BME280;66401;42.016;21.454;2023-02-14T05:43:27;99796.50;;;1.51;59.46
62789;BME280;66401;42.016;21.454;2023-02-14T05:45:54;99791.50;;;1.62;59.63
62789;BME280;66401;42.016;21.454;2023-02-14T05:48:20;99784.16;;;1.83;59.43
62789;BME280;66401;42.016;21.454;2023-02-14T05:50:45;99790.88;;;1.85;57.83
62789;BME280;66401;42.016;21.454;2023-02-14T05:53:12;99792.66;;;1.70;59.39
62789;BME280;66401;42.016;21.454;2023-02-14T05:55:38;99783.56;;;1.79;59.73
62789;BME280;66401;42.016;21.454;2023-02-14T05:58:03;99793.84;;;1.79;60.15
62789;BME280;66401;42.016;21.454;2023-02-14T06:00:29;99798.81;;;1.95;58.29
62789;BME280;66401;42.016;21.454;2023-02-14T06:02:54;99790.81;;;2.12;58.59
62789;BME280;66401;42.016;21.454;2023-02-14T06:05:20;99788.56;;;2.08;58.09
62789;BME280;66401;42.016;21.454;2023-02-14T06:07:48;99800.38;;;2.10;59.58
62789;BME280;66401;42.016;21.454;2023-02-14T06:10:19;99796.16;;;2.22;58.49
62789;BME280;66401;42.016;21.454;2023-02-14T06:12:46;99804.31;;;2.28;57.96
62789;BME280;66401;42.016;21.454;2023-02-14T06:15:12;99788.59;;;2.33;56.92
62789;BME280;66401;42.016;21.454;2023-02-14T06:17:38;99781.81;;;2.32;58.28
62789;BME280;66401;42.016;21.454;2023-02-14T06:20:04;99765.53;;;2.19;57.85
62789;BME280;66401;42.016;21.454;2023-02-14T06:22:30;99791.06;;;2.35;57.96
62789;BME280;66401;42.016;21.454;2023-02-14T06:24:55;99790.44;;;2.44;58.33
62789;BME280;66401;42.016;21.454;2023-02-14T06:27:20;99780.03;;;2.45;57.05
62789;BME280;66401;42.016;21.454;2023-02-14T06:29:46;99776.53;;;2.59;57.89
62789;BME280;66401;42.016;21.454;2023-02-14T06:32:11;99772.13;;;2.61;57.16
62789;BME280;66401;42.016;21.454;2023-02-14T06:34:37;99773.22;;;2.70;57.18
62789;BME280;66401;42.016;21.454;2023-02-14T06:37:05;99778.78;;;2.76;56.41
62789;BME280;66401;42.016;21.454;2023-02-14T06:39:31;99772.41;;;2.82;56.63
62789;BME280;66401;42.016;21.454;2023-02-14T06:41:56;99769.38;;;2.88;56.68
62789;BME280;66401;42.016;21.454;2023-02-14T06:44:22;99768.75;;;2.97;55.89
62789;BME280;66401;42.016;21.454;2023-02-14T06:46:47;99777.47;;;3.07;55.68
62789;BME280;66401;42.016;21.454;2023-02-14T06:49:13;99783.16;;;3.12;57.48
62789;BME280;66401;42.016;21.454;2023-02-14T06:51:38;99780.34;;;3.15;56.09
62789;BME280;66401;42.016;21.454;2023-02-14T06:54:04;99753.13;;;3.00;56.52
62789;BME280;66401;42.016;21.454;2023-02-14T06:56:29;99779.81;;;3.23;56.17
62789;BME280;66401;42.016;21.454;2023-02-14T06:58:55;99774.13;;;3.31;55.44
62789;BME280;66401;42.016;21.454;2023-02-14T07:01:20;99780.50;;;3.38;55.59
62789;BME280;66401;42.016;21.454;2023-02-14T07:03:46;99779.56;;;3.39;55.76
62789;BME280;66401;42.016;21.454;2023-02-14T07:06:11;99770.69;;;3.43;55.44
62789;BME280;66401;42.016;21.454;2023-02-14T07:08:37;99777.09;;;3.61;56.40
62789;BME280;66401;42.016;21.454;2023-02-14T07:11:03;99770.56;;;3.68;55.98
62789;BME280;66401;42.016;21.454;2023-02-14T07:13:28;99775.06;;;3.78;55.34
62789;BME280;66401;42.016;21.454;2023-02-14T07:15:54;99767.13;;;3.92;55.89
62789;BME280;66401;42.016;21.454;2023-02-14T07:18:19;99770.88;;;3.88;55.27
62789;BME280;66401;42.016;21.454;2023-02-14T07:20:45;99772.28;;;3.92;55.27
62789;BME280;66401;42.016;21.454;2023-02-14T07:23:10;99782.16;;;3.98;55.10
62789;BME280;66401;42.016;21.454;2023-02-14T07:25:36;99782.88;;;4.11;54.96
62789;BME280;66401;42.016;21.454;2023-02-14T07:28:02;99745.38;;;4.07;54.95
62789;BME280;66401;42.016;21.454;2023-02-14T07:30:29;99772.03;;;4.30;53.65
62789;BME280;66401;42.016;21.454;2023-02-14T07:32:56;99777.56;;;4.37;54.46
62789;BME280;66401;42.016;21.454;2023-02-14T07:35:22;99761.94;;;4.27;55.09
62789;BME280;66401;42.016;21.454;2023-02-14T07:37:49;99770.97;;;4.32;54.58
62789;BME280;66401;42.016;21.454;2023-02-14T07:40:15;99770.84;;;4.34;54.93
62789;BME280;66401;42.016;21.454;2023-02-14T07:42:41;99768.88;;;4.60;53.87
62789;BME280;66401;42.016;21.454;2023-02-14T07:45:07;99768.38;;;5.11;52.20
62789;BME280;66401;42.016;21.454;2023-02-14T07:47:32;99768.13;;;6.00;50.83
62789;BME280;66401;42.016;21.454;2023-02-14T07:49:58;99767.63;;;6.88;47.62
62789;BME280;66401;42.016;21.454;2023-02-14T07:52:23;99771.97;;;7.96;45.76
62789;BME280;66401;42.016;21.454;2023-02-14T07:54:49;99763.84;;;9.12;43.40
62789;BME280;66401;42.016;21.454;2023-02-14T07:57:14;99757.81;;;10.00;40.53
62789;BME280;66401;42.016;21.454;2023-02-14T07:59:40;99759.78;;;10.50;39.34
62789;BME280;66401;42.016;21.454;2023-02-14T08:02:05;99766.28;;;11.14;38.21
62789;BME280;66401;42.016;21.454;2023-02-14T08:04:31;99750.66;;;11.31;37.29
62789;BME280;66401;42.016;21.454;2023-02-14T08:06:57;99761.63;;;11.75;36.73
62789;BME280;66401;42.016;21.454;2023-02-14T08:09:22;99757.91;;;12.18;36.12
62789;BME280;66401;42.016;21.454;2023-02-14T08:11:52;99757.78;;;12.67;35.55
62789;BME280;66401;42.016;21.454;2023-02-14T08:14:36;99754.19;;;13.07;33.54
62789;BME280;66401;42.016;21.454;2023-02-14T08:17:02;99752.81;;;13.73;34.18
62789;BME280;66401;42.016;21.454;2023-02-14T08:19:28;99744.66;;;14.29;32.55
62789;BME280;66401;42.016;21.454;2023-02-14T08:21:54;99751.56;;;15.10;31.53
62789;BME280;66401;42.016;21.454;2023-02-14T08:24:19;99736.97;;;15.23;30.78
62789;BME280;66401;42.016;21.454;2023-02-14T08:26:45;99742.97;;;17.06;27.85
62789;BME280;66401;42.016;21.454;2023-02-14T08:29:10;99730.50;;;17.34;28.02
62789;BME280;66401;42.016;21.454;2023-02-14T08:31:36;99734.81;;;17.68;27.13
62789;BME280;66401;42.016;21.454;2023-02-14T08:34:05;99724.50;;;18.07;26.28
62789;BME280;66401;42.016;21.454;2023-02-14T08:36:31;99750.22;;;16.97;28.10
62789;BME280;66401;42.016;21.454;2023-02-14T08:38:56;99737.38;;;17.29;27.87
62789;BME280;66401;42.016;21.454;2023-02-14T08:41:22;99725.53;;;17.79;26.93
62789;BME280;66401;42.016;21.454;2023-02-14T08:43:48;99741.75;;;19.32;23.96
62789;BME280;66401;42.016;21.454;2023-02-14T08:46:14;99726.56;;;18.82;24.55
62789;BME280;66401;42.016;21.454;2023-02-14T08:48:41;99729.03;;;17.12;26.68
62789;BME280;66401;42.016;21.454;2023-02-14T08:51:10;99736.09;;;16.64;28.04
62789;BME280;66401;42.016;21.454;2023-02-14T08:53:37;99747.16;;;16.80;28.43
62789;BME280;66401;42.016;21.454;2023-02-14T08:56:04;99732.00;;;14.77;30.48
62789;BME280;66401;42.016;21.454;2023-02-14T08:58:31;99734.72;;;14.69;31.25
62789;BME280;66401;42.016;21.454;2023-02-14T09:00:56;99729.47;;;14.39;30.44
62789;BME280;66401;42.016;21.454;2023-02-14T09:03:22;99722.47;;;13.79;31.15
62789;BME280;66401;42.016;21.454;2023-02-14T09:05:48;99731.41;;;15.68;30.07
62789;BME280;66401;42.016;21.454;2023-02-14T09:08:13;99737.25;;;17.57;26.47
62789;BME280;66401;42.016;21.454;2023-02-14T09:10:39;99736.69;;;18.92;26.07
62789;BME280;66401;42.016;21.454;2023-02-14T09:13:04;99744.59;;;21.10;22.44
62789;BME280;66401;42.016;21.454;2023-02-14T09:15:30;99738.06;;;19.96;23.05
62789;BME280;66401;42.016;21.454;2023-02-14T09:17:56;99744.50;;;20.50;23.12
62789;BME280;66401;42.016;21.454;2023-02-14T09:20:21;99742.16;;;20.60;22.13
62789;BME280;66401;42.016;21.454;2023-02-14T09:22:47;99750.66;;;20.99;21.79
62789;BME280;66401;42.016;21.454;2023-02-14T09:25:12;99760.09;;;20.58;23.64
62789;BME280;66401;42.016;21.454;2023-02-14T09:27:38;99753.47;;;21.76;20.53
62789;BME280;66401;42.016;21.454;2023-02-14T09:30:07;99753.56;;;21.69;21.04
62789;BME280;66401;42.016;21.454;2023-02-14T09:32:33;99742.34;;;22.20;19.92
62789;BME280;66401;42.016;21.454;2023-02-14T09:34:59;99744.75;;;22.34;20.19
62789;BME280;66401;42.016;21.454;2023-02-14T09:37:25;99752.59;;;22.52;20.54
62789;BME280;66401;42.016;21.454;2023-02-14T09:40:12;99746.50;;;21.51;20.36
62789;BME280;66401;42.016;21.454;2023-02-14T09:42:42;99739.03;;;21.00;22.03
62789;BME280;66401;42.016;21.454;2023-02-14T09:45:13;99741.41;;;21.91;20.54
62789;BME280;66401;42.016;21.454;2023-02-14T09:48:17;99732.16;;;22.06;20.70
62789;BME280;66401;42.016;21.454;2023-02-14T09:53:25;99713.78;;;23.48;19.80
62789;BME280;66401;42.016;21.454;2023-02-14T10:01:50;99685.47;;;24.09;17.92
62789;BME280;66401;42.016;21.454;2023-02-14T10:04:25;99708.72;;;20.22;21.40
62789;BME280;66401;42.016;21.454;2023-02-14T10:10:02;99693.63;;;20.48;21.90
62789;BME280;66401;42.016;21.454;2023-02-14T10:12:38;99700.94;;;19.84;22.66
62789;BME280;66401;42.016;21.454;2023-02-14T10:15:17;99711.38;;;20.41;22.31
62789;BME280;66401;42.016;21.454;2023-02-14T10:17:47;99699.50;;;19.32;22.87
62789;BME280;66401;42.016;21.454;2023-02-14T10:22:51;99702.78;;;18.24;24.05
62789;BME280;66401;42.016;21.454;2023-02-14T10:25:26;99688.13;;;18.35;23.79
62789;BME280;66401;42.016;21.454;2023-02-14T10:27:55;99681.84;;;18.29;24.07
62789;BME280;66401;42.016;21.454;2023-02-14T10:30:22;99669.09;;;18.20;24.30
62789;BME280;66401;42.016;21.454;2023-02-14T10:33:12;99669.13;;;19.09;23.50
62789;BME280;66401;42.016;21.454;2023-02-14T10:36:01;99672.41;;;18.67;23.79
62789;BME280;66401;42.016;21.454;2023-02-14T10:44:22;99660.75;;;18.23;24.46
62789;BME280;66401;42.016;21.454;2023-02-14T10:46:58;99663.19;;;19.21;22.53
62789;BME280;66401;42.016;21.454;2023-02-14T10:54:37;99648.78;;;23.56;18.68
62789;BME280;66401;42.016;21.454;2023-02-14T10:57:13;99631.03;;;25.84;16.03
62789;BME280;66401;42.016;21.454;2023-02-14T11:02:29;99612.69;;;23.60;18.27
62789;BME280;66401;42.016;21.454;2023-02-14T11:04:56;99610.44;;;24.12;18.32
62789;BME280;66401;42.016;21.454;2023-02-14T11:07:23;99612.72;;;25.23;16.54
62789;BME280;66401;42.016;21.454;2023-02-14T11:09:48;99611.03;;;24.85;17.38
62789;BME280;66401;42.016;21.454;2023-02-14T11:12:38;99614.19;;;25.78;15.95
62789;BME280;66401;42.016;21.454;2023-02-14T11:17:41;99580.69;;;27.16;15.27
62789;BME280;66401;42.016;21.454;2023-02-14T11:20:25;99581.13;;;27.69;14.64
62789;BME280;66401;42.016;21.454;2023-02-14T11:22:52;99569.53;;;26.21;16.02
62789;BME280;66401;42.016;21.454;2023-02-14T11:25:22;99574.22;;;26.87;15.47
62789;BME280;66401;42.016;21.454;2023-02-14T11:28:14;99556.28;;;27.53;14.78
62789;BME280;66401;42.016;21.454;2023-02-14T11:30:42;99557.84;;;25.75;16.50
62789;BME280;66401;42.016;21.454;2023-02-14T11:33:39;99552.94;;;26.14;15.95
62789;BME280;66401;42.016;21.454;2023-02-14T11:36:13;99556.22;;;26.36;15.73
62789;BME280;66401;42.016;21.454;2023-02-14T11:38:42;99549.66;;;27.05;14.60
62789;BME280;66401;42.016;21.454;2023-02-14T11:41:12;99534.88;;;26.36;15.14
62789;BME280;66401;42.016;21.454;2023-02-14T11:43:42;99533.75;;;24.58;17.28
62789;BME280;66401;42.016;21.454;2023-02-14T11:48:59;99553.34;;;24.42;17.54
62789;BME280;66401;42.016;21.454;2023-02-14T11:51:32;99547.41;;;24.35;17.20
62789;BME280;66401;42.016;21.454;2023-02-14T11:53:59;99555.53;;;24.50;17.18
62789;BME280;66401;42.016;21.454;2023-02-14T11:56:50;99556.75;;;25.28;16.38
62789;BME280;66401;42.016;21.454;2023-02-14T11:59:50;99550.50;;;25.50;16.46
62789;BME280;66401;42.016;21.454;2023-02-14T12:05:02;99536.34;;;23.43;17.19
62789;BME280;66401;42.016;21.454;2023-02-14T12:12:34;99522.78;;;22.44;19.13
62789;BME280;66401;42.016;21.454;2023-02-14T12:17:55;99521.78;;;22.62;18.67
62789;BME280;66401;42.016;21.454;2023-02-14T12:20:34;99523.84;;;22.15;19.59
62789;BME280;66401;42.016;21.454;2023-02-14T12:23:56;99519.00;;;22.40;18.71
62789;BME280;66401;42.016;21.454;2023-02-14T12:29:14;99508.97;;;21.38;20.38
62789;BME280;66401;42.016;21.454;2023-02-14T12:31:42;99489.25;;;21.46;20.69
62789;BME280;66401;42.016;21.454;2023-02-14T12:34:10;99496.53;;;21.27;19.83
62789;BME280;66401;42.016;21.454;2023-02-14T12:40:09;99498.75;;;19.87;21.03
62789;BME280;66401;42.016;21.454;2023-02-14T12:45:19;99484.84;;;19.36;21.62
62789;BME280;66401;42.016;21.454;2023-02-14T12:48:10;99496.16;;;19.00;22.57
62789;BME280;66401;42.016;21.454;2023-02-14T12:51:13;99480.88;;;18.14;23.34
62789;BME280;66401;42.016;21.454;2023-02-14T12:53:54;99469.38;;;18.40;23.26
62789;BME280;66401;42.016;21.454;2023-02-14T13:02:23;99474.31;;;18.30;23.90
62789;BME280;66401;42.016;21.454;2023-02-14T13:05:10;99472.59;;;18.11;23.75
62789;BME280;66401;42.016;21.454;2023-02-14T13:18:52;99459.34;;;17.79;25.44
62789;BME280;66401;42.016;21.454;2023-02-14T13:21:25;99465.56;;;17.98;24.76
62789;BME280;66401;42.016;21.454;2023-02-14T13:24:23;99464.63;;;17.66;24.44
62789;BME280;66401;42.016;21.454;2023-02-14T13:26:53;99459.47;;;17.26;25.93
62789;BME280;66401;42.016;21.454;2023-02-14T13:29:22;99446.84;;;17.55;24.39
62789;BME280;66401;42.016;21.454;2023-02-14T13:31:51;99447.91;;;17.34;24.74
62789;BME280;66401;42.016;21.454;2023-02-14T13:34:38;99442.69;;;17.21;24.26
62789;BME280;66401;42.016;21.454;2023-02-14T13:37:10;99434.22;;;16.85;25.56
62789;BME280;66401;42.016;21.454;2023-02-14T13:39:40;99435.41;;;17.03;26.25
62789;BME280;66401;42.016;21.454;2023-02-14T13:42:10;99429.16;;;16.91;25.27
62789;BME280;66401;42.016;21.454;2023-02-14T13:44:49;99438.28;;;16.75;25.38
62789;BME280;66401;42.016;21.454;2023-02-14T13:47:19;99425.47;;;16.58;25.11
62789;BME280;66401;42.016;21.454;2023-02-14T13:49:54;99436.22;;;16.57;26.13
62789;BME280;66401;42.016;21.454;2023-02-14T13:52:41;99425.25;;;16.20;26.77
62789;BME280;66401;42.016;21.454;2023-02-14T13:55:19;99428.41;;;15.89;27.48
62789;BME280;66401;42.016;21.454;2023-02-14T13:58:00;99438.44;;;15.72;26.80
62789;BME280;66401;42.016;21.454;2023-02-14T14:00:45;99422.94;;;15.91;26.92
62789;BME280;66401;42.016;21.454;2023-02-14T14:08:39;99423.16;;;15.89;27.03
62789;BME280;66401;42.016;21.454;2023-02-14T14:18:49;99404.44;;;15.16;28.96
62789;BME280;66401;42.016;21.454;2023-02-14T14:21:23;99394.50;;;15.12;27.97
62789;BME280;66401;42.016;21.454;2023-02-14T14:26:36;99403.19;;;14.84;27.96
62789;BME280;66401;42.016;21.454;2023-02-14T14:29:32;99416.63;;;14.96;28.12
62789;BME280;66401;42.016;21.454;2023-02-14T14:32:10;99408.75;;;14.96;27.73
62789;BME280;66401;42.016;21.454;2023-02-14T14:34:36;99380.66;;;14.62;28.80
62789;BME280;66401;42.016;21.454;2023-02-14T14:37:14;99410.91;;;14.65;28.58
62789;BME280;66401;42.016;21.454;2023-02-14T14:39:40;99407.31;;;14.66;28.64
62789;BME280;66401;42.016;21.454;2023-02-14T14:42:13;99410.22;;;14.49;28.98
62789;BME280;66401;42.016;21.454;2023-02-14T14:44:46;99426.16;;;14.33;28.71
62789;BME280;66401;42.016;21.454;2023-02-14T14:47:18;99419.66;;;14.08;30.47
62789;BME280;66401;42.016;21.454;2023-02-14T14:49:45;99391.09;;;13.91;30.53
62789;BME280;66401;42.016;21.454;2023-02-14T14:52:28;99415.66;;;13.90;30.27
62789;BME280;66401;42.016;21.454;2023-02-14T14:54:55;99424.72;;;13.73;29.90
62789;BME280;66401;42.016;21.454;2023-02-14T14:57:21;99415.97;;;13.66;30.34
62789;BME280;66401;42.016;21.454;2023-02-14T14:59:47;99418.25;;;13.39;30.40
62789;BME280;66401;42.016;21.454;2023-02-14T15:02:26;99414.06;;;13.01;30.87
62789;BME280;66401;42.016;21.454;2023-02-14T15:04:52;99422.84;;;12.70;31.58
62789;BME280;66401;42.016;21.454;2023-02-14T15:07:23;99413.19;;;12.56;32.32
62789;BME280;66401;42.016;21.454;2023-02-14T15:09:51;99419.41;;;12.55;32.08
62789;BME280;66401;42.016;21.454;2023-02-14T15:12:21;99415.13;;;12.54;32.38
62789;BME280;66401;42.016;21.454;2023-02-14T15:15:06;99408.13;;;12.31;32.37
62789;BME280;66401;42.016;21.454;2023-02-14T15:17:35;99398.09;;;12.20;32.99
62789;BME280;66401;42.016;21.454;2023-02-14T15:20:05;99411.84;;;12.14;33.05
62789;BME280;66401;42.016;21.454;2023-02-14T15:24:59;99430.53;;;12.03;33.29
62789;BME280;66401;42.016;21.454;2023-02-14T15:27:26;99418.81;;;11.99;33.03
62789;BME280;66401;42.016;21.454;2023-02-14T15:29:58;99438.06;;;11.98;33.63
62789;BME280;66401;42.016;21.454;2023-02-14T15:32:25;99437.47;;;11.88;33.81